Time;durP1;ratioP1;P1;durP2;ratioP2;P2;SDS_P1;SDS_P2;PMS_P1;PMS_P2;Temp;Humidity;BMP_temperature;BMP_pressure;BME280_temperature;BME280_humidity;BME280_pressure;Samples;Min_cycle;Max_cycle;Signal;HPM_P1;HPM_P2
2021/05/12 00:02:01;;;;;;;4.20;3.23;;;;;;;12.09;100.00;99870.84;641243;222;24863;-71
2021/05/12 00:04:29;;;;;;;8.53;3.00;;;;;;;12.18;100.00;99869.88;632141;225;24904;-71
2021/05/12 00:06:57;;;;;;;7.37;3.50;;;;;;;12.12;100.00;99873.14;626196;227;25068;-71
2021/05/12 00:09:25;;;;;;;12.90;3.53;;;;;;;12.18;100.00;99869.88;627524;224;24842;-71
2021/05/12 00:11:54;;;;;;;7.30;3.20;;;;;;;12.14;100.00;99868.58;634827;225;23843;-72
2021/05/12 00:14:22;;;;;;;5.33;3.80;;;;;;;12.04;100.00;99875.73;632972;225;24792;-73
2021/05/12 00:16:50;;;;;;;4.80;3.97;;;;;;;12.03;100.00;99877.53;627078;227;25162;-71
2021/05/12 00:19:20;;;;;;;6.30;3.90;;;;;;;12.06;100.00;99875.89;641829;220;24810;-71
2021/05/12 00:21:49;;;;;;;6.30;3.43;;;;;;;12.02;100.00;99878.52;642263;223;26967;-71
2021/05/12 00:24:14;;;;;;;4.77;3.30;;;;;;;11.96;100.00;99889.56;626122;225;24812;-73
2021/05/12 00:26:43;;;;;;;5.30;3.20;;;;;;;11.96;100.00;99887.45;613138;232;23930;-74
2021/05/12 00:29:10;;;;;;;8.83;3.80;;;;;;;11.98;100.00;99889.44;631601;222;33295;-73
2021/05/12 00:31:38;;;;;;;9.37;3.57;;;;;;;12.04;100.00;99888.77;637846;225;25926;-74
2021/05/12 00:34:06;;;;;;;3.47;3.10;;;;;;;11.99;100.00;99889.27;618772;229;24871;-74
2021/05/12 00:36:34;;;;;;;6.03;3.30;;;;;;;11.96;100.00;99892.66;615475;231;24902;-75
2021/05/12 00:39:02;;;;;;;4.57;2.87;;;;;;;11.94;100.00;99892.83;615626;229;24902;-74
2021/05/12 00:41:30;;;;;;;4.60;3.20;;;;;;;12.00;100.00;99895.30;619076;231;27128;-74
2021/05/12 00:43:58;;;;;;;6.90;2.80;;;;;;;11.86;100.00;99891.53;613085;231;24909;-75
2021/05/12 00:46:26;;;;;;;4.20;3.00;;;;;;;11.85;100.00;99900.33;629630;225;25906;-74
2021/05/12 00:48:54;;;;;;;4.80;3.27;;;;;;;11.89;100.00;99895.93;633519;224;24807;-74
2021/05/12 00:51:22;;;;;;;8.37;3.50;;;;;;;11.84;100.00;99898.22;638290;224;23836;-73
2021/05/12 00:53:49;;;;;;;4.10;3.50;;;;;;;11.87;100.00;99892.67;633189;225;24813;-73
2021/05/12 00:56:18;;;;;;;5.20;4.00;;;;;;;11.87;100.00;99895.77;637785;225;24875;-73
2021/05/12 00:58:46;;;;;;;9.00;3.90;;;;;;;11.83;100.00;99893.98;633550;225;24805;-73
2021/05/12 01:01:13;;;;;;;4.33;3.90;;;;;;;11.86;100.00;99901.47;616781;232;24890;-73
2021/05/12 01:03:42;;;;;;;5.87;4.70;;;;;;;11.80;100.00;99892.98;633009;225;24877;-73
2021/05/12 01:06:10;;;;;;;5.77;4.50;;;;;;;11.89;100.00;99895.93;616053;233;24978;-73
2021/05/12 01:08:38;;;;;;;6.73;5.17;;;;;;;11.84;100.00;99892.19;631429;221;23855;-73
2021/05/12 01:11:06;;;;;;;6.03;5.17;;;;;;;11.88;100.00;99894.80;614525;231;24945;-73
2021/05/12 01:13:34;;;;;;;6.13;5.53;;;;;;;11.84;100.00;99899.52;614995;231;27070;-73
2021/05/12 01:16:02;;;;;;;6.07;5.37;;;;;;;11.82;100.00;99904.53;642656;222;24836;-71
2021/05/12 01:18:30;;;;;;;6.90;5.40;;;;;;;11.84;100.00;99906.03;626303;225;24836;-71
2021/05/12 01:20:58;;;;;;;7.70;4.90;;;;;;;11.83;100.00;99910.92;625187;228;24856;-73
2021/05/12 01:23:25;;;;;;;5.57;4.83;;;;;;;11.79;100.00;99909.59;627601;228;24851;-74
2021/05/12 01:25:54;;;;;;;7.60;6.10;;;;;;;11.79;100.00;99906.98;643074;222;23883;-74
2021/05/12 01:28:22;;;;;;;8.38;6.28;;;;;;;11.95;100.00;99910.58;632957;221;32930;-74
2021/05/12 01:30:52;;;;;;;11.05;5.92;;;;;;;11.91;100.00;99906.67;633130;222;32663;-73
2021/05/12 01:33:20;;;;;;;7.53;6.10;;;;;;;11.83;100.00;99912.71;633276;225;23708;-74
2021/05/12 01:35:48;;;;;;;8.70;5.60;;;;;;;11.87;100.00;99907.50;637893;225;25958;-73
2021/05/12 01:38:15;;;;;;;5.90;5.30;;;;;;;11.77;100.00;99918.03;621879;226;25226;-74
2021/05/12 01:40:44;;;;;;;9.30;7.03;;;;;;;11.73;100.00;99905.00;617461;230;28076;-76
2021/05/12 01:43:12;;;;;;;7.10;6.40;;;;;;;11.73;100.00;99906.79;617536;231;24998;-76
2021/05/12 01:45:39;;;;;;;8.07;6.07;;;;;;;11.67;100.00;99906.92;619392;230;24906;-73
2021/05/12 01:48:07;;;;;;;8.63;6.50;;;;;;;11.70;100.00;99906.62;616837;230;24901;-73
2021/05/12 01:50:35;;;;;;;8.03;6.60;;;;;;;11.77;100.00;99905.00;614495;231;24927;-74
2021/05/12 01:53:03;;;;;;;10.10;6.90;;;;;;;11.84;100.00;99904.73;618334;231;33796;-70
2021/05/12 01:55:31;;;;;;;9.83;6.70;;;;;;;11.83;100.00;99908.31;617992;231;25170;-73
2021/05/12 01:57:59;;;;;;;6.97;5.80;;;;;;;11.80;100.00;99909.91;614490;232;26117;-73
2021/05/12 02:00:27;;;;;;;9.63;7.40;;;;;;;11.79;100.00;99912.19;644217;218;24809;-73
2021/05/12 02:02:55;;;;;;;7.63;6.93;;;;;;;11.72;100.00;99909.88;628141;225;24816;-73
2021/05/12 02:05:23;;;;;;;8.53;7.20;;;;;;;11.73;100.00;99906.79;633655;225;25080;-73
2021/05/12 02:07:52;;;;;;;10.08;7.03;;;;;;;11.84;100.00;99913.03;614802;229;43404;-71
2021/05/12 02:10:20;;;;;;;10.00;7.20;;;;;;;11.74;100.00;99909.23;626720;225;23953;-71
2021/05/12 02:12:48;;;;;;;11.23;7.33;;;;;;;11.70;100.00;99911.84;641391;222;24825;-73
2021/05/12 02:15:16;;;;;;;9.93;8.33;;;;;;;11.61;100.00;99914.09;633384;225;23857;-75
2021/05/12 02:17:44;;;;;;;15.83;8.17;;;;;;;11.62;100.00;99916.20;616267;229;25970;-74
2021/05/12 02:20:13;;;;;;;10.50;7.80;;;;;;;11.67;100.00;99913.44;627909;226;24873;-73
2021/05/12 02:22:41;;;;;;;14.90;8.13;;;;;;;11.70;100.00;99915.75;628409;227;23897;-74
2021/05/12 02:25:10;;;;;;;9.00;8.10;;;;;;;11.82;100.00;99907.98;633510;222;34151;-72
2021/05/12 02:27:38;;;;;;;10.17;8.23;;;;;;;11.70;100.00;99905.81;635159;225;24819;-70
2021/05/12 02:30:07;;;;;;;10.60;8.73;;;;;;;11.69;100.00;99905.48;633452;225;24859;-71
2021/05/12 02:32:35;;;;;;;14.40;8.97;;;;;;;11.66;100.00;99908.39;632758;225;24812;-71
2021/05/12 02:35:03;;;;;;;12.30;9.10;;;;;;;11.66;100.00;99902.69;640865;222;23853;-70
2021/05/12 02:37:31;;;;;;;11.37;8.37;;;;;;;11.66;100.00;99903.17;631053;225;24852;-71
2021/05/12 02:39:59;;;;;;;14.00;9.73;;;;;;;11.66;100.00;99903.17;636085;221;24821;-71
2021/05/12 02:42:27;;;;;;;10.90;9.10;;;;;;;11.64;100.00;99903.34;643121;222;24877;-72
2021/05/12 02:44:55;;;;;;;13.60;9.73;;;;;;;11.63;100.00;99896.50;631706;225;24826;-73
2021/05/12 02:47:23;;;;;;;12.90;9.27;;;;;;;11.61;100.00;99901.06;627003;228;24903;-70
2021/05/12 02:49:51;;;;;;;13.00;9.70;;;;;;;11.54;100.00;99900.89;643504;219;24861;-73
2021/05/12 02:52:19;;;;;;;13.23;9.20;;;;;;;11.54;100.00;99897.45;642350;222;24823;-73
2021/05/12 02:54:47;;;;;;;12.37;9.20;;;;;;;11.59;100.00;99893.41;630219;225;24844;-73
2021/05/12 02:57:15;;;;;;;16.90;9.00;;;;;;;11.63;100.00;99899.59;625171;227;24866;-74
2021/05/12 02:59:43;;;;;;;12.50;9.00;;;;;;;11.61;100.00;99895.85;629389;221;24851;-73
2021/05/12 03:02:11;;;;;;;15.20;9.40;;;;;;;11.63;100.00;99906.11;617296;228;33134;-74
2021/05/12 03:04:39;;;;;;;15.23;9.80;;;;;;;11.60;100.00;99902.85;643788;222;23728;-73
2021/05/12 03:07:07;;;;;;;13.67;8.40;;;;;;;11.59;100.00;99905.62;636064;225;24838;-73
2021/05/12 03:09:35;;;;;;;13.63;8.57;;;;;;;11.60;100.00;99902.85;624516;226;24924;-73
2021/05/12 03:12:03;;;;;;;11.47;8.50;;;;;;;11.59;100.00;99905.62;628099;226;23892;-73
2021/05/12 03:14:31;;;;;;;8.60;7.67;;;;;;;11.67;100.00;99904.80;632538;225;23847;-73
2021/05/12 03:16:59;;;;;;;9.00;7.53;;;;;;;11.60;100.00;99907.25;616558;228;24874;-74
2021/05/12 03:19:27;;;;;;;11.47;8.10;;;;;;;11.58;100.00;99903.50;644877;218;25180;-73
2021/05/12 03:21:55;;;;;;;13.77;8.37;;;;;;;11.65;100.00;99908.87;627053;225;32702;-74
2021/05/12 03:24:23;;;;;;;10.23;7.80;;;;;;;11.58;100.00;99903.99;634526;225;23851;-73
2021/05/12 03:26:51;;;;;;;11.03;7.83;;;;;;;11.55;100.00;99904.31;628330;227;23920;-73
2021/05/12 03:29:19;;;;;;;11.13;7.73;;;;;;;11.62;100.00;99905.30;617573;225;35637;-73
2021/05/12 03:31:47;;;;;;;11.40;7.67;;;;;;;11.63;100.00;99911.31;628847;227;24864;-73
2021/05/12 03:34:15;;;;;;;12.87;6.67;;;;;;;11.65;100.00;99910.18;626291;228;23887;-73
2021/05/12 03:36:43;;;;;;;9.40;7.10;;;;;;;11.63;100.00;99910.02;633166;225;24858;-73
2021/05/12 03:39:11;;;;;;;7.37;6.53;;;;;;;11.71;100.00;99910.86;622150;225;24857;-72
2021/05/12 03:41:39;;;;;;;10.00;7.37;;;;;;;11.63;100.00;99912.13;629035;225;24823;-73
2021/05/12 03:44:07;;;;;;;8.73;5.90;;;;;;;11.59;100.00;99905.62;625797;227;24853;-70
2021/05/12 03:46:35;;;;;;;10.07;7.00;;;;;;;11.62;100.00;99899.27;627584;225;32659;-73
2021/05/12 03:49:03;;;;;;;7.40;6.70;;;;;;;11.58;100.00;99902.20;619483;228;23925;-73
2021/05/12 03:51:31;;;;;;;7.70;5.90;;;;;;;11.54;100.00;99906.56;615319;231;25288;-74
2021/05/12 03:53:59;;;;;;;13.87;6.37;;;;;;;11.56;100.00;99902.03;635765;225;24813;-74
2021/05/12 03:56:27;;;;;;;10.53;7.10;;;;;;;11.52;100.00;99900.70;642064;222;24825;-75
2021/05/12 03:58:55;;;;;;;8.70;6.37;;;;;;;11.50;100.00;99903.47;631833;221;24814;-73
2021/05/12 04:01:23;;;;;;;8.00;5.70;;;;;;;11.45;100.00;99902.33;632684;225;24809;-73
2021/05/12 04:03:51;;;;;;;8.47;5.70;;;;;;;11.48;100.00;99893.70;642340;222;24821;-73
2021/05/12 04:06:19;;;;;;;7.80;6.90;;;;;;;11.54;100.00;99894.84;616612;230;24922;-72
2021/05/12 04:08:47;;;;;;;11.60;6.40;;;;;;;11.44;100.00;99889.80;633555;225;24830;-73
2021/05/12 04:11:14;;;;;;;7.67;6.33;;;;;;;11.41;100.00;99901.84;632913;225;25111;-73
2021/05/12 04:13:43;;;;;;;9.20;6.27;;;;;;;11.44;100.00;99893.70;612348;231;32983;-72
2021/05/12 04:16:10;;;;;;;8.57;6.07;;;;;;;11.38;100.00;99890.90;634923;223;24826;-73
2021/05/12 04:18:38;;;;;;;6.53;5.93;;;;;;;11.36;100.00;99899.36;626109;226;24874;-73
2021/05/12 04:21:06;;;;;;;7.30;6.60;;;;;;;11.30;100.00;99895.61;629193;227;24845;-73
2021/05/12 04:23:34;;;;;;;8.03;6.73;;;;;;;11.27;100.00;99900.65;627132;226;24884;-74
2021/05/12 04:26:02;;;;;;;8.23;5.87;;;;;;;11.29;100.00;99908.30;628424;225;24872;-74
2021/05/12 04:28:30;;;;;;;13.37;6.83;;;;;;;11.27;100.00;99909.77;619472;229;24916;-74
2021/05/12 04:30:58;;;;;;;8.23;6.60;;;;;;;11.25;100.00;99909.56;633256;225;24819;-74
2021/05/12 04:33:26;;;;;;;6.50;5.90;;;;;;;11.21;100.00;99905.16;645243;222;24834;-73
2021/05/12 04:35:54;;;;;;;10.90;6.43;;;;;;;11.29;100.00;99910.41;642265;221;23835;-73
2021/05/12 04:38:22;;;;;;;7.00;6.30;;;;;;;11.32;100.00;99906.67;639504;221;23834;-71
2021/05/12 04:40:50;;;;;;;7.17;6.47;;;;;;;11.35;100.00;99908.95;641498;222;24847;-73
2021/05/12 04:43:18;;;;;;;9.10;6.83;;;;;;;11.30;100.00;99902.93;643053;222;23851;-73
2021/05/12 04:45:45;;;;;;;8.90;7.30;;;;;;;11.30;100.00;99909.44;612631;231;26174;-73
2021/05/12 04:48:13;;;;;;;9.30;6.63;;;;;;;11.27;100.00;99912.36;630257;225;24805;-74
2021/05/12 04:50:41;;;;;;;7.60;6.57;;;;;;;11.32;100.00;99912.38;621474;228;24864;-76
2021/05/12 04:53:09;;;;;;;15.23;7.43;;;;;;;11.26;100.00;99915.94;612548;232;24908;-74
2021/05/12 04:55:37;;;;;;;10.73;6.60;;;;;;;11.23;100.00;99917.53;641428;221;24821;-74
2021/05/12 04:58:05;;;;;;;10.30;7.13;;;;;;;11.20;100.00;99926.15;632869;225;25881;-74
2021/05/12 05:00:33;;;;;;;8.33;7.50;;;;;;;11.22;100.00;99926.31;641511;219;24820;-73
2021/05/12 05:03:03;;;;;;;9.40;7.20;;;;;;;11.18;100.00;99922.41;627204;224;23856;-74
2021/05/12 05:05:29;;;;;;;10.10;6.97;;;;;;;11.20;100.00;99926.15;622516;227;24870;-73
2021/05/12 05:07:57;;;;;;;9.23;7.30;;;;;;;11.15;100.00;99930.53;627230;227;24867;-74
2021/05/12 05:10:25;;;;;;;11.50;8.53;;;;;;;11.20;100.00;99936.07;630784;224;24856;-73
2021/05/12 05:12:53;;;;;;;7.90;7.10;;;;;;;11.19;100.00;99935.75;635855;225;24829;-73
2021/05/12 05:15:21;;;;;;;7.83;7.03;;;;;;;11.22;100.00;99934.13;630064;225;24865;-73
2021/05/12 05:17:50;;;;;;;9.53;7.50;;;;;;;11.20;100.00;99939.98;620777;229;24855;-73
2021/05/12 05:20:18;;;;;;;8.20;7.37;;;;;;;11.22;100.00;99936.73;645525;217;24944;-74
2021/05/12 05:22:46;;;;;;;11.23;7.50;;;;;;;11.22;100.00;99941.12;629180;225;24833;-75
2021/05/12 05:25:14;;;;;;;9.97;6.80;;;;;;;11.25;100.00;99941.61;633033;225;23874;-74
2021/05/12 05:27:42;;;;;;;10.67;7.90;;;;;;;11.45;100.00;99941.39;638471;225;24820;-74
2021/05/12 05:30:11;;;;;;;10.10;7.00;;;;;;;11.29;100.00;99942.14;627064;225;24812;-73
2021/05/12 05:32:39;;;;;;;7.67;6.83;;;;;;;11.41;100.00;99942.69;633097;225;24941;-73
2021/05/12 05:35:08;;;;;;;11.50;7.27;;;;;;;11.43;100.00;99951.15;637603;224;27007;-73
2021/05/12 05:37:36;;;;;;;11.73;6.70;;;;;;;11.56;100.00;99955.43;634508;224;30140;-73
2021/05/12 05:40:05;;;;;;;12.17;7.50;;;;;;;11.58;100.00;99954.30;633736;221;24841;-73
2021/05/12 05:42:33;;;;;;;9.30;6.43;;;;;;;11.64;100.00;99958.05;633232;225;24821;-73
2021/05/12 05:45:01;;;;;;;8.47;6.23;;;;;;;11.54;100.00;99957.34;619650;229;28065;-73
2021/05/12 05:47:29;;;;;;;8.13;6.83;;;;;;;11.42;100.00;99965.14;637510;224;25910;-73
2021/05/12 05:49:57;;;;;;;10.33;7.10;;;;;;;11.36;100.00;99965.27;621690;226;24937;-73
2021/05/12 05:52:25;;;;;;;9.13;6.23;;;;;;;11.42;100.00;99966.45;616547;231;24934;-72
2021/05/12 05:54:53;;;;;;;8.93;6.00;;;;;;;11.41;100.00;99960.91;618467;230;24963;-73
2021/05/12 05:57:21;;;;;;;9.53;6.40;;;;;;;11.37;100.00;99973.89;629979;225;24841;-73
2021/05/12 05:59:49;;;;;;;9.87;6.03;;;;;;;11.42;100.00;99965.95;616710;229;24919;-73
2021/05/12 06:02:17;;;;;;;10.97;6.50;;;;;;;11.38;100.00;99971.13;639016;222;23848;-75
2021/05/12 06:04:46;;;;;;;7.93;6.80;;;;;;;11.40;100.00;99974.42;641961;222;24850;-74
2021/05/12 06:07:14;;;;;;;9.93;6.97;;;;;;;11.50;100.00;99976.88;644389;222;24800;-74
2021/05/12 06:09:41;;;;;;;7.70;6.07;;;;;;;11.51;100.00;99972.00;633429;221;28032;-73
2021/05/12 06:12:10;;;;;;;12.37;6.07;;;;;;;11.68;100.00;99977.59;616061;232;24937;-73
2021/05/12 06:14:38;;;;;;;9.20;6.27;;;;;;;11.66;100.00;99984.75;635608;225;24854;-74
2021/05/12 06:17:06;;;;;;;11.53;6.40;;;;;;;11.90;100.00;99980.14;636972;225;26981;-73
2021/05/12 06:19:34;;;;;;;7.57;5.73;;;;;;;11.94;100.00;99978.83;640985;221;27009;-71
2021/05/12 06:22:02;;;;;;;6.07;5.20;;;;;;;12.18;100.00;99984.59;633077;225;23848;-71
2021/05/12 06:24:30;;;;;;;5.67;4.90;;;;;;;12.08;100.00;99992.55;624071;227;23968;-70
2021/05/12 06:26:58;;;;;;;6.55;5.35;;;;;;;12.65;99.69;99994.37;621139;225;32683;-71
2021/05/12 06:29:26;;;;;;;6.27;4.70;;;;;;;12.26;100.00;99992.44;637363;221;23727;-71
2021/05/12 06:31:54;;;;;;;6.60;4.13;;;;;;;12.34;99.98;99995.03;641335;222;24810;-70
2021/05/12 06:34:22;;;;;;;8.70;5.53;;;;;;;12.39;100.00;99982.34;639975;222;24806;-71
2021/05/12 06:36:50;;;;;;;7.33;4.37;;;;;;;12.10;100.00;99994.98;642742;222;24843;-70
2021/05/12 06:39:17;;;;;;;10.00;5.17;;;;;;;12.11;100.00;99997.95;626041;225;24870;-71
2021/05/12 06:41:45;;;;;;;10.17;4.90;;;;;;;12.01;100.00;99995.97;628755;227;24885;-70
2021/05/12 06:44:13;;;;;;;7.20;4.90;;;;;;;12.05;100.00;99994.17;627051;228;24861;-71
2021/05/12 06:46:42;;;;;;;7.77;5.97;;;;;;;12.02;100.00;100001.02;615525;232;23955;-73
2021/05/12 06:49:09;;;;;;;6.50;5.13;;;;;;;12.08;100.00;99997.76;637142;221;23885;-72
2021/05/12 06:51:38;;;;;;;5.80;4.50;;;;;;;12.16;100.00;99999.58;632793;225;24882;-73
2021/05/12 06:54:06;;;;;;;5.93;4.60;;;;;;;12.14;100.00;99998.93;643119;222;23836;-73
2021/05/12 06:56:34;;;;;;;8.80;4.80;;;;;;;12.24;100.00;100004.79;633060;225;24806;-71
2021/05/12 06:59:02;;;;;;;8.10;4.70;;;;;;;12.45;100.00;99997.81;618836;228;24912;-70
2021/05/12 07:01:30;;;;;;;9.00;4.23;;;;;;;12.09;100.00;100005.09;615733;231;25020;-70
2021/05/12 07:03:58;;;;;;;7.37;4.23;;;;;;;12.30;100.00;100004.66;634015;225;24811;-70
2021/05/12 07:06:26;;;;;;;4.27;3.80;;;;;;;12.19;100.00;100010.50;621311;231;24888;-71
2021/05/12 07:08:54;;;;;;;6.87;4.23;;;;;;;11.86;100.00;100006.19;618020;228;24926;-71
2021/05/12 07:11:23;;;;;;;5.00;3.93;;;;;;;12.10;100.00;100011.94;619022;231;24942;-74
2021/05/12 07:13:51;;;;;;;7.03;4.20;;;;;;;12.69;100.00;100009.56;610482;231;34907;-71
2021/05/12 07:16:19;;;;;;;9.63;4.27;;;;;;;11.94;100.00;100010.11;629516;225;23802;-71
2021/05/12 07:18:47;;;;;;;6.43;4.10;;;;;;;12.18;100.00;100005.45;626258;224;23853;-71
2021/05/12 07:21:15;;;;;;;6.17;3.93;;;;;;;12.09;100.00;100003.79;629241;227;24859;-71
2021/05/12 07:23:44;;;;;;;7.60;4.40;;;;;;;11.93;100.00;100006.36;642622;222;25918;-75
2021/05/12 07:26:12;;;;;;;6.23;4.30;;;;;;;11.84;100.00;100008.15;642739;222;24846;-73
2021/05/12 07:28:41;;;;;;;6.70;3.70;;;;;;;11.84;100.00;100008.15;633861;222;23822;-73
2021/05/12 07:31:08;;;;;;;7.20;4.20;;;;;;;12.01;100.00;100015.03;641420;222;24791;-73
2021/05/12 07:33:35;;;;;;;6.87;4.10;;;;;;;12.58;100.00;100003.37;623796;225;32786;-71
2021/05/12 07:36:04;;;;;;;9.20;4.07;;;;;;;12.34;100.00;100009.38;641862;222;23713;-71
2021/05/12 07:38:32;;;;;;;6.95;4.00;;;;;;;12.63;100.00;100006.78;630595;221;32674;-71
2021/05/12 07:41:02;;;;;;;7.87;3.87;;;;;;;12.33;100.00;100011.66;625872;229;22764;-71
2021/05/12 07:43:28;;;;;;;4.20;3.70;;;;;;;12.18;100.00;100017.17;634347;225;23837;-71
2021/05/12 07:45:58;;;;;;;4.80;3.77;;;;;;;12.30;100.00;100017.69;631929;225;24827;-72
2021/05/12 07:48:24;;;;;;;7.03;4.40;;;;;;;12.37;100.00;100012.95;629380;225;24849;-72
2021/05/12 07:50:52;;;;;;;8.07;3.90;;;;;;;12.14;100.00;100017.17;630227;225;24809;-71
2021/05/12 07:53:20;;;;;;;8.08;4.30;;;;;;;12.60;100.00;100020.16;627203;225;32967;-71
2021/05/12 07:55:48;;;;;;;7.40;4.20;;;;;;;12.73;99.58;100019.18;637843;222;32687;-72
2021/05/12 07:58:16;;;;;;;4.23;3.57;;;;;;;12.51;100.00;100021.13;630977;224;23841;-72
2021/05/12 08:00:45;;;;;;;5.23;3.70;;;;;;;12.57;100.00;100025.70;627390;228;24886;-71
2021/05/12 08:03:12;;;;;;;5.27;3.43;;;;;;;12.47;100.00;100021.94;630249;225;23839;-71
2021/05/12 08:05:40;;;;;;;7.60;3.80;;;;;;;12.68;100.00;100014.95;618595;227;24841;-70
2021/05/12 08:08:09;;;;;;;5.60;3.40;;;;;;;12.63;100.00;100015.91;629908;227;24848;-73
2021/05/12 08:10:37;;;;;;;6.73;3.30;;;;;;;12.56;100.00;100017.55;629408;224;24858;-72
2021/05/12 08:13:05;;;;;;;5.90;3.60;;;;;;;12.33;100.00;100019.97;638354;225;24856;-71
2021/05/12 08:15:33;;;;;;;12.47;4.60;;;;;;;12.23;100.00;100013.59;629504;224;24824;-74
2021/05/12 08:18:01;;;;;;;7.10;4.00;;;;;;;11.83;100.00;100016.45;612832;232;24911;-73
2021/05/12 08:20:30;;;;;;;7.97;3.80;;;;;;;12.13;100.00;100016.85;643541;221;24815;-74
2021/05/12 08:22:57;;;;;;;5.50;3.83;;;;;;;11.76;100.00;100009.38;632216;224;26015;-73
2021/05/12 08:25:25;;;;;;;7.47;4.00;;;;;;;11.76;100.00;100011.98;620586;227;32860;-73
2021/05/12 08:27:54;;;;;;;7.07;4.17;;;;;;;11.67;100.00;100009.01;626092;225;24847;-75
2021/05/12 08:30:24;;;;;;;6.40;4.00;;;;;;;11.72;100.00;100008.88;638307;221;24006;-73
2021/05/12 08:32:50;;;;;;;5.97;4.60;;;;;;;11.73;100.00;100000.09;627662;225;24994;-73
2021/05/12 08:35:18;;;;;;;8.83;5.08;;;;;;;12.07;100.00;100000.04;618102;227;32912;-73
2021/05/12 08:37:46;;;;;;;13.03;5.17;;;;;;;11.89;100.00;99989.75;626447;227;23728;-72
2021/05/12 08:40:15;;;;;;;7.00;4.93;;;;;;;11.89;100.00;99992.84;628082;226;24898;-73
2021/05/12 08:42:43;;;;;;;6.90;5.20;;;;;;;12.10;100.00;99994.98;628698;225;24818;-73
2021/05/12 08:45:12;;;;;;;11.53;4.83;;;;;;;12.00;100.00;99983.91;628062;225;23894;-73
2021/05/12 08:47:42;;;;;;;8.60;4.70;;;;;;;12.20;100.00;99980.02;642161;222;23868;-73
2021/05/12 08:50:10;;;;;;;6.60;4.50;;;;;;;12.24;100.00;99976.59;641822;219;24822;-74
2021/05/12 08:52:38;;;;;;;4.90;4.37;;;;;;;12.30;100.00;99970.75;631306;225;24830;-74
2021/05/12 08:55:08;;;;;;;7.80;4.70;;;;;;;12.30;100.00;99966.35;623679;228;24847;-73
2021/05/12 08:57:35;;;;;;;8.70;4.10;;;;;;;12.33;100.00;99969.94;626286;228;24857;-72
2021/05/12 09:00:04;;;;;;;6.93;5.07;;;;;;;12.40;100.00;99967.50;625204;226;24900;-73
2021/05/12 09:02:33;;;;;;;5.97;4.30;;;;;;;12.63;100.00;99965.03;625202;227;25134;-72
2021/05/12 09:05:01;;;;;;;6.37;4.30;;;;;;;12.93;100.00;99968.73;626710;228;24870;-74
2021/05/12 09:07:29;;;;;;;9.30;3.90;;;;;;;12.79;100.00;99961.09;626326;227;24833;-74
2021/05/12 09:09:57;;;;;;;6.53;4.50;;;;;;;13.02;100.00;99969.87;627881;224;23987;-73
2021/05/12 09:12:25;;;;;;;4.50;3.73;;;;;;;12.91;98.03;99957.66;630691;225;23836;-73
2021/05/12 09:14:56;;;;;;;4.20;3.60;;;;;;;12.85;95.98;99956.53;629314;224;24827;-74
2021/05/12 09:17:32;;;;;;;3.87;3.50;;;;;;;12.99;96.83;99962.37;635908;224;24972;-73
2021/05/12 09:20:00;;;;;;;4.97;3.73;;;;;;;13.38;95.39;99956.42;629082;225;24900;-73
2021/05/12 09:22:28;;;;;;;4.63;3.57;;;;;;;13.66;94.86;99952.37;629698;227;23884;-73
2021/05/12 09:25:06;;;;;;;3.90;3.30;;;;;;;14.10;92.81;99955.69;624835;227;27136;-71
2021/05/12 09:27:34;;;;;;;9.20;4.07;;;;;;;14.05;90.87;99951.46;641387;222;24813;-74
2021/05/12 09:30:03;;;;;;;9.10;3.90;;;;;;;13.77;91.08;99943.80;636444;221;24830;-73
2021/05/12 09:32:42;;;;;;;6.43;3.90;;;;;;;13.80;89.44;99947.39;617357;231;24901;-73
2021/05/12 09:35:11;;;;;;;6.60;4.50;;;;;;;14.71;89.43;99943.44;632292;225;24819;-73
2021/05/12 09:37:40;;;;;;;6.70;4.20;;;;;;;14.74;87.41;99937.83;616191;231;23920;-70
2021/05/12 09:40:08;;;;;;;3.93;3.50;;;;;;;15.03;85.96;99930.98;618995;226;25148;-70
2021/05/12 09:42:37;;;;;;;7.45;4.10;;;;;;;15.54;85.21;99929.73;610831;232;33088;-74
2021/05/12 09:45:10;;;;;;;9.63;3.80;;;;;;;14.78;84.70;99920.80;628097;225;26991;-73
2021/05/12 09:47:38;;;;;;;8.30;5.40;;;;;;;14.37;87.62;99941.27;640864;222;25024;-73
2021/05/12 09:50:10;;;;;;;4.83;4.30;;;;;;;14.90;85.36;99933.42;641281;218;27005;-71
2021/05/12 09:52:37;;;;;;;5.43;4.43;;;;;;;15.07;84.91;99927.03;639601;223;24853;-74
2021/05/12 09:55:06;;;;;;;3.87;3.47;;;;;;;15.13;83.12;99909.27;642814;222;23825;-74
2021/05/12 09:57:34;;;;;;;7.03;4.57;;;;;;;15.04;85.37;99926.88;635118;225;23840;-74
2021/05/12 10:00:01;;;;;;;4.63;3.87;;;;;;;14.75;85.15;99923.75;640210;221;23845;-73
2021/05/12 10:02:44;;;;;;;5.27;3.07;;;;;;;15.10;85.24;99922.73;627455;225;24860;-74
2021/05/12 10:05:13;;;;;;;5.77;3.67;;;;;;;15.64;85.72;99926.35;626974;225;23832;-73
2021/05/12 10:07:41;;;;;;;5.90;3.33;;;;;;;15.64;84.56;99931.59;622442;228;23902;-76
2021/05/12 10:10:10;;;;;;;6.00;3.37;;;;;;;15.52;84.84;99927.29;627320;223;24873;-73
2021/05/12 10:12:38;;;;;;;5.00;2.67;;;;;;;15.33;86.79;99940.45;628598;225;23850;-73
2021/05/12 10:15:07;;;;;;;5.67;3.30;;;;;;;15.15;87.39;99947.88;614403;232;24977;-73
2021/05/12 10:17:35;;;;;;;5.90;3.33;;;;;;;15.10;88.44;99947.63;643453;223;24859;-74
2021/05/12 10:20:03;;;;;;;4.30;3.03;;;;;;;15.20;87.46;99941.63;631674;224;23882;-73
2021/05/12 10:22:30;;;;;;;8.73;3.03;;;;;;;15.32;85.94;99930.97;621346;228;24844;-73
2021/05/12 10:24:59;;;;;;;7.23;2.63;;;;;;;15.74;85.20;99926.34;629233;224;23847;-73
2021/05/12 10:27:26;;;;;;;4.75;3.12;;;;;;;16.10;85.89;99923.38;615427;229;32812;-73
2021/05/12 10:29:54;;;;;;;4.57;3.23;;;;;;;15.99;85.34;99918.94;619487;225;23727;-73
2021/05/12 10:32:24;;;;;;;11.10;3.40;;;;;;;16.36;85.33;99920.98;635868;224;23853;-73
2021/05/12 10:35:00;;;;;;;8.40;3.10;;;;;;;16.41;84.21;99915.16;617188;231;25164;-73
2021/05/12 10:37:28;;;;;;;3.50;2.60;;;;;;;16.42;83.04;99906.28;616951;231;28189;-74
2021/05/12 10:40:00;;;;;;;3.60;2.50;;;;;;;16.54;83.27;99905.56;632260;221;23845;-75
2021/05/12 10:42:38;;;;;;;5.20;2.77;;;;;;;16.55;82.56;99899.31;632870;225;24859;-73
2021/05/12 10:45:08;;;;;;;3.77;3.33;;;;;;;16.21;83.51;99904.51;615434;232;24955;-74
2021/05/12 10:47:37;;;;;;;7.72;2.95;;;;;;;16.76;81.18;99897.67;611846;231;33030;-73
2021/05/12 10:50:07;;;;;;;7.53;3.23;;;;;;;17.36;81.06;99890.88;635100;222;22701;-74
2021/05/12 10:52:34;;;;;;;6.60;3.10;;;;;;;17.17;79.52;99880.09;617768;231;23937;-73
2021/05/12 10:55:02;;;;;;;7.20;3.03;;;;;;;17.66;79.90;99879.02;621464;230;24095;-73
2021/05/12 10:57:44;;;;;;;6.93;3.13;;;;;;;17.72;78.39;99872.17;628585;225;32638;-73
2021/05/12 11:00:13;;;;;;;4.03;2.70;;;;;;;17.61;79.10;99870.93;629102;225;23818;-73
2021/05/12 11:03:00;;;;;;;3.93;2.60;;;;;;;17.56;77.96;99869.38;617266;231;27078;-74
2021/05/12 11:06:00;;;;;;;5.87;2.93;;;;;;;17.83;78.59;99861.56;633457;225;28025;-74
2021/05/12 11:08:27;;;;;;;4.30;2.20;;;;;;;18.16;76.66;99853.68;627306;225;23902;-74
2021/05/12 11:10:58;;;;;;;11.50;3.07;;;;;;;17.94;76.01;99849.14;632999;225;23895;-73
2021/05/12 11:13:26;;;;;;;7.03;3.20;;;;;;;18.09;76.40;99845.80;636382;225;23847;-71
2021/05/12 11:15:54;;;;;;;8.43;3.30;;;;;;;17.87;77.75;99843.85;636778;225;23859;-73
2021/05/12 11:18:42;;;;;;;8.07;2.67;;;;;;;17.60;76.35;99850.09;627816;228;23875;-73
2021/05/12 11:21:22;;;;;;;12.83;3.47;;;;;;;17.57;77.54;99852.59;630029;227;23880;-74
2021/05/12 11:24:07;;;;;;;7.17;2.70;;;;;;;17.41;78.30;99842.44;629941;225;24951;-73
2021/05/12 11:26:47;;;;;;;4.73;2.50;;;;;;;16.93;80.59;99843.80;636586;225;23871;-74
2021/05/12 11:31:08;;;;;;;6.63;2.60;;;;;;;17.15;79.23;99845.30;631473;221;23845;-73
2021/05/12 11:31:38;;;;;;;14.63;3.03;;;;;;;17.06;78.50;99835.98;637024;223;24124;-75